sensor_id;sensor_type;location;lat;lon;timestamp;pressure;altitude;pressure_sealevel;temperature;humidity
46007;BME280;31738;50.188;8.524;2022-12-11T00:00:21;98338.94;;;-0.57;86.96
46007;BME280;31738;50.188;8.524;2022-12-11T00:03:00;98328.41;;;-0.57;86.85
46007;BME280;31738;50.188;8.524;2022-12-11T00:05:41;98332.66;;;-0.56;86.59
46007;BME280;31738;50.188;8.524;2022-12-11T00:08:07;98337.28;;;-0.51;86.73
46007;BME280;31738;50.188;8.524;2022-12-11T00:10:51;98333.63;;;-0.50;86.67
46007;BME280;31738;50.188;8.524;2022-12-11T00:13:17;98338.91;;;-0.50;87.19
46007;BME280;31738;50.188;8.524;2022-12-11T00:15:46;98343.75;;;-0.47;87.23
46007;BME280;31738;50.188;8.524;2022-12-11T00:18:30;98347.78;;;-0.45;87.10
46007;BME280;31738;50.188;8.524;2022-12-11T00:21:28;98342.94;;;-0.48;86.91
46007;BME280;31738;50.188;8.524;2022-12-11T00:24:05;98344.34;;;-0.45;86.93
46007;BME280;31738;50.188;8.524;2022-12-11T00:26:41;98342.09;;;-0.42;87.04
46007;BME280;31738;50.188;8.524;2022-12-11T00:29:11;98338.88;;;-0.44;87.08
46007;BME280;31738;50.188;8.524;2022-12-11T00:31:46;98340.25;;;-0.41;87.24
46007;BME280;31738;50.188;8.524;2022-12-11T00:34:15;98341.69;;;-0.39;87.17
46007;BME280;31738;50.188;8.524;2022-12-11T00:36:43;98333.56;;;-0.37;87.26
46007;BME280;31738;50.188;8.524;2022-12-11T00:39:12;98335.75;;;-0.34;87.19
46007;BME280;31738;50.188;8.524;2022-12-11T00:41:38;98334.53;;;-0.32;87.26
46007;BME280;31738;50.188;8.524;2022-12-11T00:44:12;98337.75;;;-0.30;87.39
46007;BME280;31738;50.188;8.524;2022-12-11T00:46:52;98348.50;;;-0.31;87.28
46007;BME280;31738;50.188;8.524;2022-12-11T00:49:23;98340.19;;;-0.28;87.56
46007;BME280;31738;50.188;8.524;2022-12-11T00:51:49;98340.78;;;-0.26;87.30
46007;BME280;31738;50.188;8.524;2022-12-11T00:54:24;98330.81;;;-0.24;87.31
46007;BME280;31738;50.188;8.524;2022-12-11T00:57:18;98337.13;;;-0.25;87.10
46007;BME280;31738;50.188;8.524;2022-12-11T00:59:47;98342.81;;;-0.28;86.95
46007;BME280;31738;50.188;8.524;2022-12-11T01:02:24;98347.03;;;-0.27;87.12
46007;BME280;31738;50.188;8.524;2022-12-11T01:04:57;98346.03;;;-0.26;87.56
46007;BME280;31738;50.188;8.524;2022-12-11T01:07:28;98349.69;;;-0.27;87.58
46007;BME280;31738;50.188;8.524;2022-12-11T01:10:04;98347.03;;;-0.27;87.76
46007;BME280;31738;50.188;8.524;2022-12-11T01:13:05;98347.47;;;-0.30;87.59
46007;BME280;31738;50.188;8.524;2022-12-11T01:15:39;98346.44;;;-0.29;87.79
46007;BME280;31738;50.188;8.524;2022-12-11T01:18:10;98346.03;;;-0.26;87.68
46007;BME280;31738;50.188;8.524;2022-12-11T01:20:42;98339.97;;;-0.27;87.44
46007;BME280;31738;50.188;8.524;2022-12-11T01:23:37;98345.22;;;-0.27;87.61
46007;BME280;31738;50.188;8.524;2022-12-11T01:29:10;98342.16;;;-0.24;87.41
46007;BME280;31738;50.188;8.524;2022-12-11T01:31:50;98342.38;;;-0.25;87.33
46007;BME280;31738;50.188;8.524;2022-12-11T01:34:27;98340.56;;;-0.25;87.15
46007;BME280;31738;50.188;8.524;2022-12-11T01:37:03;98333.44;;;-0.24;87.57
46007;BME280;31738;50.188;8.524;2022-12-11T01:39:55;98338.72;;;-0.24;87.90
46007;BME280;31738;50.188;8.524;2022-12-11T01:42:21;98337.50;;;-0.22;87.85
46007;BME280;31738;50.188;8.524;2022-12-11T01:45:53;98337.50;;;-0.22;87.83
46007;BME280;31738;50.188;8.524;2022-12-11T01:48:27;98324.31;;;-0.22;87.77
46007;BME280;31738;50.188;8.524;2022-12-11T01:50:59;98315.19;;;-0.19;87.66
46007;BME280;31738;50.188;8.524;2022-12-11T01:53:34;98320.63;;;-0.14;87.95
46007;BME280;31738;50.188;8.524;2022-12-11T01:56:05;98323.38;;;-0.09;88.15
46007;BME280;31738;50.188;8.524;2022-12-11T01:58:39;98335.13;;;-0.05;87.99
46007;BME280;31738;50.188;8.524;2022-12-11T02:01:45;98322.38;;;-0.08;87.89
46007;BME280;31738;50.188;8.524;2022-12-11T02:04:32;98325.03;;;-0.08;87.56
46007;BME280;31738;50.188;8.524;2022-12-11T02:07:13;98318.72;;;-0.07;87.99
46007;BME280;31738;50.188;8.524;2022-12-11T02:09:42;98317.03;;;-0.02;87.62
46007;BME280;31738;50.188;8.524;2022-12-11T02:12:38;98324.75;;;0.00;87.78
46007;BME280;31738;50.188;8.524;2022-12-11T02:15:31;98327.66;;;-0.08;87.90
46007;BME280;31738;50.188;8.524;2022-12-11T02:28:57;98321.56;;;-0.09;88.35
46007;BME280;31738;50.188;8.524;2022-12-11T02:31:46;98329.25;;;-0.07;88.18
46007;BME280;31738;50.188;8.524;2022-12-11T02:34:29;98338.34;;;-0.03;87.87
46007;BME280;31738;50.188;8.524;2022-12-11T02:37:18;98332.84;;;-0.02;88.07
46007;BME280;31738;50.188;8.524;2022-12-11T02:39:51;98333.22;;;0.02;88.17
46007;BME280;31738;50.188;8.524;2022-12-11T02:42:27;98335.66;;;0.03;88.06
46007;BME280;31738;50.188;8.524;2022-12-11T02:45:00;98339.69;;;0.06;88.09
46007;BME280;31738;50.188;8.524;2022-12-11T02:47:34;98340.28;;;0.08;88.12
46007;BME280;31738;50.188;8.524;2022-12-11T02:50:28;98339.28;;;0.09;88.28
46007;BME280;31738;50.188;8.524;2022-12-11T02:53:04;98333.56;;;0.12;88.17
46007;BME280;31738;50.188;8.524;2022-12-11T02:55:32;98337.59;;;0.15;87.73
46007;BME280;31738;50.188;8.524;2022-12-11T02:58:17;98329.06;;;0.13;87.80
46007;BME280;31738;50.188;8.524;2022-12-11T03:00:46;98327.91;;;0.09;87.91
46007;BME280;31738;50.188;8.524;2022-12-11T03:03:12;98325.66;;;0.12;88.00
46007;BME280;31738;50.188;8.524;2022-12-11T03:05:38;98331.50;;;0.14;88.17
46007;BME280;31738;50.188;8.524;2022-12-11T03:08:12;98329.06;;;0.13;88.13
46007;BME280;31738;50.188;8.524;2022-12-11T03:10:55;98325.44;;;0.14;88.52
46007;BME280;31738;50.188;8.524;2022-12-11T03:13:40;98329.28;;;0.11;87.98
46007;BME280;31738;50.188;8.524;2022-12-11T03:16:33;98321.81;;;0.08;87.97
46007;BME280;31738;50.188;8.524;2022-12-11T03:19:08;98332.97;;;0.10;88.19
46007;BME280;31738;50.188;8.524;2022-12-11T03:22:06;98339.28;;;0.09;88.34
46007;BME280;31738;50.188;8.524;2022-12-11T03:24:55;98326.09;;;0.09;88.32
46007;BME280;31738;50.188;8.524;2022-12-11T03:27:32;98323.66;;;0.08;88.05
46007;BME280;31738;50.188;8.524;2022-12-11T03:30:18;98323.88;;;0.06;88.47
46007;BME280;31738;50.188;8.524;2022-12-11T03:33:22;98324.31;;;0.03;88.43
46007;BME280;31738;50.188;8.524;2022-12-11T03:36:12;98321.47;;;0.05;88.07
46007;BME280;31738;50.188;8.524;2022-12-11T03:39:13;98329.59;;;0.03;88.02
46007;BME280;31738;50.188;8.524;2022-12-11T03:41:49;98315.38;;;0.04;88.00
46007;BME280;31738;50.188;8.524;2022-12-11T03:44:28;98328.13;;;0.07;88.30
46007;BME280;31738;50.188;8.524;2022-12-11T03:47:08;98321.03;;;0.08;88.40
46007;BME280;31738;50.188;8.524;2022-12-11T03:50:00;98321.81;;;0.08;88.48
46007;BME280;31738;50.188;8.524;2022-12-11T03:52:34;98313.69;;;0.10;88.33
46007;BME280;31738;50.188;8.524;2022-12-11T03:55:11;98318.75;;;0.11;87.98
46007;BME280;31738;50.188;8.524;2022-12-11T03:57:44;98312.47;;;0.12;88.41
46007;BME280;31738;50.188;8.524;2022-12-11T04:00:13;98322.81;;;0.14;88.18
46007;BME280;31738;50.188;8.524;2022-12-11T04:02:49;98319.94;;;0.15;88.77
46007;BME280;31738;50.188;8.524;2022-12-11T04:05:36;98324.19;;;0.16;88.41
46007;BME280;31738;50.188;8.524;2022-12-11T04:08:07;98322.94;;;0.19;88.37
46007;BME280;31738;50.188;8.524;2022-12-11T04:11:08;98322.16;;;0.18;88.20
46007;BME280;31738;50.188;8.524;2022-12-11T04:14:34;98325.34;;;0.20;88.46
46007;BME280;31738;50.188;8.524;2022-12-11T04:17:08;98316.28;;;0.16;88.36
46007;BME280;31738;50.188;8.524;2022-12-11T04:20:02;98326.22;;;0.14;88.10
46007;BME280;31738;50.188;8.524;2022-12-11T04:23:05;98308.81;;;0.13;88.74
46007;BME280;31738;50.188;8.524;2022-12-11T04:26:02;98312.47;;;0.12;88.48
46007;BME280;31738;50.188;8.524;2022-12-11T04:28:51;98308.00;;;0.13;88.22
46007;BME280;31738;50.188;8.524;2022-12-11T04:31:43;98312.03;;;0.15;88.44
46007;BME280;31738;50.188;8.524;2022-12-11T04:34:16;98309.97;;;0.17;88.52
46007;BME280;31738;50.188;8.524;2022-12-11T04:36:49;98299.66;;;0.16;88.26
46007;BME280;31738;50.188;8.524;2022-12-11T04:39:21;98306.91;;;0.20;88.41
46007;BME280;31738;50.188;8.524;2022-12-11T04:41:47;98296.94;;;0.22;88.30
46007;BME280;31738;50.188;8.524;2022-12-11T04:44:13;98303.81;;;0.23;88.85
46007;BME280;31738;50.188;8.524;2022-12-11T04:46:43;98301.19;;;0.23;88.76
46007;BME280;31738;50.188;8.524;2022-12-11T04:49:11;98305.91;;;0.21;88.66
46007;BME280;31738;50.188;8.524;2022-12-11T04:51:43;98309.41;;;0.15;88.81
46007;BME280;31738;50.188;8.524;2022-12-11T04:54:12;98305.56;;;0.11;88.99
46007;BME280;31738;50.188;8.524;2022-12-11T04:56:41;98316.50;;;0.15;88.86
46007;BME280;31738;50.188;8.524;2022-12-11T04:59:15;98314.72;;;0.09;89.10
46007;BME280;31738;50.188;8.524;2022-12-11T05:01:44;98310.06;;;0.11;89.03
46007;BME280;31738;50.188;8.524;2022-12-11T05:04:29;98302.28;;;0.16;89.41
46007;BME280;31738;50.188;8.524;2022-12-11T05:07:18;98302.06;;;0.17;88.82
46007;BME280;31738;50.188;8.524;2022-12-11T05:09:52;98299.81;;;0.21;89.01
46007;BME280;31738;50.188;8.524;2022-12-11T05:12:41;98303.25;;;0.21;88.48
46007;BME280;31738;50.188;8.524;2022-12-11T05:15:19;98303.81;;;0.23;88.93
46007;BME280;31738;50.188;8.524;2022-12-11T05:17:54;98295.91;;;0.23;88.64
46007;BME280;31738;50.188;8.524;2022-12-11T05:20:43;98297.38;;;0.19;89.13
46007;BME280;31738;50.188;8.524;2022-12-11T05:23:18;98291.69;;;0.22;88.78
46007;BME280;31738;50.188;8.524;2022-12-11T05:25:55;98288.38;;;0.27;88.97
46007;BME280;31738;50.188;8.524;2022-12-11T05:28:29;98281.06;;;0.29;88.76
46007;BME280;31738;50.188;8.524;2022-12-11T05:31:29;98285.53;;;0.28;89.09
46007;BME280;31738;50.188;8.524;2022-12-11T05:37:09;98277.03;;;0.26;88.97
46007;BME280;31738;50.188;8.524;2022-12-11T05:39:48;98278.66;;;0.27;88.85
46007;BME280;31738;50.188;8.524;2022-12-11T05:42:16;98284.53;;;0.29;89.00
46007;BME280;31738;50.188;8.524;2022-12-11T05:44:51;98288.31;;;0.33;88.81
46007;BME280;31738;50.188;8.524;2022-12-11T05:47:27;98289.56;;;0.31;88.77
46007;BME280;31738;50.188;8.524;2022-12-11T05:49:55;98290.38;;;0.31;88.86
46007;BME280;31738;50.188;8.524;2022-12-11T05:52:24;98286.72;;;0.32;88.98
46007;BME280;31738;50.188;8.524;2022-12-11T05:54:49;98283.66;;;0.35;88.88
46007;BME280;31738;50.188;8.524;2022-12-11T05:57:24;98276.72;;;0.16;89.22
46007;BME280;31738;50.188;8.524;2022-12-11T06:00:19;98274.09;;;0.16;89.24
46007;BME280;31738;50.188;8.524;2022-12-11T06:02:54;98267.78;;;0.17;89.18
46007;BME280;31738;50.188;8.524;2022-12-11T06:05:20;98255.22;;;0.19;89.30
46007;BME280;31738;50.188;8.524;2022-12-11T06:07:55;98262.09;;;0.20;89.25
46007;BME280;31738;50.188;8.524;2022-12-11T06:10:28;98261.94;;;0.15;89.00
46007;BME280;31738;50.188;8.524;2022-12-11T06:12:57;98257.13;;;0.12;89.53
46007;BME280;31738;50.188;8.524;2022-12-11T06:15:28;98262.75;;;0.16;89.18
46007;BME280;31738;50.188;8.524;2022-12-11T06:18:40;98256.31;;;0.12;89.09
46007;BME280;31738;50.188;8.524;2022-12-11T06:21:26;98260.09;;;0.16;89.56
46007;BME280;31738;50.188;8.524;2022-12-11T06:24:00;98261.50;;;0.18;89.06
46007;BME280;31738;50.188;8.524;2022-12-11T06:26:33;98253.16;;;0.21;88.92
46007;BME280;31738;50.188;8.524;2022-12-11T06:28:58;98258.22;;;0.23;89.13
46007;BME280;31738;50.188;8.524;2022-12-11T06:31:49;98264.28;;;0.23;89.25
46007;BME280;31738;50.188;8.524;2022-12-11T06:34:33;98264.50;;;0.22;89.08
46007;BME280;31738;50.188;8.524;2022-12-11T06:37:02;98252.72;;;0.24;88.63
46007;BME280;31738;50.188;8.524;2022-12-11T06:39:30;98252.72;;;0.24;88.87
46007;BME280;31738;50.188;8.524;2022-12-11T06:41:56;98250.66;;;0.26;89.03
46007;BME280;31738;50.188;8.524;2022-12-11T06:44:35;98259.59;;;0.25;89.20
46007;BME280;31738;50.188;8.524;2022-12-11T06:47:17;98260.91;;;0.16;89.11
46007;BME280;31738;50.188;8.524;2022-12-11T06:49:48;98262.50;;;0.17;89.34
46007;BME280;31738;50.188;8.524;2022-12-11T06:52:13;98259.44;;;0.20;89.22
46007;BME280;31738;50.188;8.524;2022-12-11T06:55:02;98268.97;;;0.21;88.82
46007;BME280;31738;50.188;8.524;2022-12-11T06:58:15;98269.41;;;0.18;89.32
46007;BME280;31738;50.188;8.524;2022-12-11T07:04:12;98267.34;;;0.20;89.24
46007;BME280;31738;50.188;8.524;2022-12-11T07:29:13;98262.81;;;0.09;89.38
46007;BME280;31738;50.188;8.524;2022-12-11T07:35:23;98271.09;;;0.13;89.46
46007;BME280;31738;50.188;8.524;2022-12-11T07:38:05;98281.41;;;0.14;89.32
46007;BME280;31738;50.188;8.524;2022-12-11T07:43:34;98278.28;;;0.24;89.45
46007;BME280;31738;50.188;8.524;2022-12-11T07:47:00;98276.28;;;0.19;89.40
46007;BME280;31738;50.188;8.524;2022-12-11T07:49:49;98280.09;;;0.23;89.15
46007;BME280;31738;50.188;8.524;2022-12-11T07:53:24;98278.88;;;0.26;89.17
46007;BME280;31738;50.188;8.524;2022-12-11T07:56:24;98280.84;;;0.30;88.90
46007;BME280;31738;50.188;8.524;2022-12-11T07:58:50;98278.72;;;0.39;88.93
46007;BME280;31738;50.188;8.524;2022-12-11T08:01:18;98274.41;;;0.44;89.46
46007;BME280;31738;50.188;8.524;2022-12-11T08:03:47;98277.63;;;0.46;89.53
46007;BME280;31738;50.188;8.524;2022-12-11T08:06:13;98280.84;;;0.48;89.17
46007;BME280;31738;50.188;8.524;2022-12-11T08:08:42;98284.66;;;0.52;89.05
46007;BME280;31738;50.188;8.524;2022-12-11T08:11:15;98283.19;;;0.56;89.20
46007;BME280;31738;50.188;8.524;2022-12-11T08:13:47;98279.53;;;0.57;89.11
46007;BME280;31738;50.188;8.524;2022-12-11T08:16:14;98279.91;;;0.61;89.57
46007;BME280;31738;50.188;8.524;2022-12-11T08:19:04;98282.97;;;0.58;89.03
46007;BME280;31738;50.188;8.524;2022-12-11T08:21:52;98278.75;;;0.57;89.66
46007;BME280;31738;50.188;8.524;2022-12-11T08:24:18;98281.59;;;0.55;89.23
46007;BME280;31738;50.188;8.524;2022-12-11T08:26:47;98273.81;;;0.60;89.27
46007;BME280;31738;50.188;8.524;2022-12-11T08:29:13;98275.22;;;0.63;89.33
46007;BME280;31738;50.188;8.524;2022-12-11T08:31:40;98276.59;;;0.65;89.24
46007;BME280;31738;50.188;8.524;2022-12-11T08:34:06;98275.34;;;0.68;89.13
46007;BME280;31738;50.188;8.524;2022-12-11T08:36:31;98273.06;;;0.71;89.24
46007;BME280;31738;50.188;8.524;2022-12-11T08:38:57;98268.81;;;0.70;88.98
46007;BME280;31738;50.188;8.524;2022-12-11T08:41:29;98266.19;;;0.70;88.94
46007;BME280;31738;50.188;8.524;2022-12-11T08:43:57;98275.47;;;0.73;89.28
46007;BME280;31738;50.188;8.524;2022-12-11T08:46:28;98280.09;;;0.77;88.95
46007;BME280;31738;50.188;8.524;2022-12-11T08:48:54;98278.72;;;0.75;89.25
46007;BME280;31738;50.188;8.524;2022-12-11T08:51:22;98277.31;;;0.72;89.08
46007;BME280;31738;50.188;8.524;2022-12-11T08:53:48;98280.53;;;0.74;89.42
46007;BME280;31738;50.188;8.524;2022-12-11T08:56:18;98283.31;;;0.79;89.56
46007;BME280;31738;50.188;8.524;2022-12-11T08:58:45;98280.84;;;0.84;89.39
46007;BME280;31738;50.188;8.524;2022-12-11T09:01:13;98281.41;;;0.86;89.54
46007;BME280;31738;50.188;8.524;2022-12-11T09:03:40;98280.63;;;0.86;88.82
46007;BME280;31738;50.188;8.524;2022-12-11T09:06:07;98271.06;;;0.85;89.34
46007;BME280;31738;50.188;8.524;2022-12-11T09:08:33;98276.13;;;0.86;89.12
46007;BME280;31738;50.188;8.524;2022-12-11T09:11:10;98283.25;;;0.86;89.36
46007;BME280;31738;50.188;8.524;2022-12-11T09:13:36;98274.28;;;0.87;89.45
46007;BME280;31738;50.188;8.524;2022-12-11T09:16:07;98272.25;;;0.89;89.18
46007;BME280;31738;50.188;8.524;2022-12-11T09:18:34;98277.66;;;0.94;89.62
46007;BME280;31738;50.188;8.524;2022-12-11T09:21:01;98271.69;;;0.98;88.93
46007;BME280;31738;50.188;8.524;2022-12-11T09:23:27;98264.38;;;1.00;89.30
46007;BME280;31738;50.188;8.524;2022-12-11T09:25:53;98276.06;;;1.04;89.43
46007;BME280;31738;50.188;8.524;2022-12-11T09:28:19;98285.41;;;1.07;89.41
46007;BME280;31738;50.188;8.524;2022-12-11T09:30:44;98275.63;;;1.07;89.52
46007;BME280;31738;50.188;8.524;2022-12-11T09:33:10;98279.66;;;1.10;89.01
46007;BME280;31738;50.188;8.524;2022-12-11T09:35:35;98278.84;;;1.09;88.84
46007;BME280;31738;50.188;8.524;2022-12-11T09:38:02;98276.22;;;1.09;89.38
46007;BME280;31738;50.188;8.524;2022-12-11T09:40:27;98275.22;;;1.10;88.95
46007;BME280;31738;50.188;8.524;2022-12-11T09:43:00;98284.94;;;1.10;89.11
46007;BME280;31738;50.188;8.524;2022-12-11T09:45:27;98276.53;;;1.01;89.14
46007;BME280;31738;50.188;8.524;2022-12-11T09:47:54;98280.34;;;1.05;89.29
46007;BME280;31738;50.188;8.524;2022-12-11T09:50:33;98268.03;;;0.99;88.79
46007;BME280;31738;50.188;8.524;2022-12-11T09:53:06;98264.81;;;0.97;88.95
46007;BME280;31738;50.188;8.524;2022-12-11T09:55:55;98267.66;;;0.96;89.41
46007;BME280;31738;50.188;8.524;2022-12-11T09:58:41;98265.44;;;0.81;89.56
46007;BME280;31738;50.188;8.524;2022-12-11T10:01:16;98256.63;;;0.87;89.63
46007;BME280;31738;50.188;8.524;2022-12-11T10:07:05;98258.59;;;0.92;89.50
46007;BME280;31738;50.188;8.524;2022-12-11T10:12:27;98255.19;;;1.03;89.61
46007;BME280;31738;50.188;8.524;2022-12-11T10:17:41;98259.78;;;1.07;88.88
46007;BME280;31738;50.188;8.524;2022-12-11T10:20:23;98263.47;;;1.06;88.85
46007;BME280;31738;50.188;8.524;2022-12-11T10:22:51;98253.94;;;1.05;89.03
46007;BME280;31738;50.188;8.524;2022-12-11T10:25:21;98261.06;;;1.05;89.20
46007;BME280;31738;50.188;8.524;2022-12-11T10:27:49;98262.31;;;1.02;89.25
46007;BME280;31738;50.188;8.524;2022-12-11T10:30:27;98265.19;;;1.01;89.28
46007;BME280;31738;50.188;8.524;2022-12-11T10:35:38;98266.28;;;0.93;89.24
46007;BME280;31738;50.188;8.524;2022-12-11T10:38:19;98265.13;;;0.89;89.44
46007;BME280;31738;50.188;8.524;2022-12-11T10:40:51;98267.75;;;0.89;89.03
46007;BME280;31738;50.188;8.524;2022-12-11T10:43:31;98255.59;;;0.88;89.23
46007;BME280;31738;50.188;8.524;2022-12-11T10:45:59;98258.22;;;0.88;89.32
46007;BME280;31738;50.188;8.524;2022-12-11T10:48:25;98252.59;;;0.85;89.63
46007;BME280;31738;50.188;8.524;2022-12-11T10:51:00;98244.22;;;0.88;89.57
46007;BME280;31738;50.188;8.524;2022-12-11T10:53:26;98249.66;;;0.93;89.10
46007;BME280;31738;50.188;8.524;2022-12-11T10:55:54;98249.41;;;0.94;89.71
46007;BME280;31738;50.188;8.524;2022-12-11T10:58:26;98244.13;;;0.94;89.62
46007;BME280;31738;50.188;8.524;2022-12-11T11:01:05;98241.94;;;0.91;89.29
46007;BME280;31738;50.188;8.524;2022-12-11T11:03:33;98240.91;;;0.92;89.57
46007;BME280;31738;50.188;8.524;2022-12-11T11:06:06;98236.53;;;0.86;89.42
46007;BME280;31738;50.188;8.524;2022-12-11T11:08:49;98237.56;;;0.85;89.63
46007;BME280;31738;50.188;8.524;2022-12-11T11:11:23;98245.50;;;0.85;89.48
46007;BME280;31738;50.188;8.524;2022-12-11T11:13:49;98233.09;;;0.86;89.81
46007;BME280;31738;50.188;8.524;2022-12-11T11:16:17;98227.59;;;0.87;89.46
46007;BME280;31738;50.188;8.524;2022-12-11T11:18:53;98220.69;;;0.86;89.21
46007;BME280;31738;50.188;8.524;2022-12-11T11:21:21;98221.72;;;0.85;89.96
46007;BME280;31738;50.188;8.524;2022-12-11T11:23:49;98217.03;;;0.87;89.49
46007;BME280;31738;50.188;8.524;2022-12-11T11:26:15;98218.19;;;0.91;89.61
46007;BME280;31738;50.188;8.524;2022-12-11T11:28:47;98215.34;;;0.93;89.71
46007;BME280;31738;50.188;8.524;2022-12-11T11:31:14;98214.06;;;0.95;89.58
46007;BME280;31738;50.188;8.524;2022-12-11T11:36:24;98205.75;;;0.80;89.54
46007;BME280;31738;50.188;8.524;2022-12-11T11:44:37;98196.72;;;0.88;89.67
46007;BME280;31738;50.188;8.524;2022-12-11T11:47:12;98198.91;;;0.91;89.87
46007;BME280;31738;50.188;8.524;2022-12-11T11:49:49;98196.50;;;0.89;89.70
46007;BME280;31738;50.188;8.524;2022-12-11T11:52:36;98195.25;;;0.92;89.84
46007;BME280;31738;50.188;8.524;2022-12-11T11:57:59;98190.09;;;0.97;89.45
46007;BME280;31738;50.188;8.524;2022-12-11T12:00:28;98188.84;;;0.99;89.51
46007;BME280;31738;50.188;8.524;2022-12-11T12:02:56;98190.00;;;1.03;89.34
46007;BME280;31738;50.188;8.524;2022-12-11T12:05:49;98191.81;;;0.91;88.92
46007;BME280;31738;50.188;8.524;2022-12-11T12:08:29;98183.44;;;0.94;89.74
46007;BME280;31738;50.188;8.524;2022-12-11T12:11:02;98185.63;;;0.97;89.79
46007;BME280;31738;50.188;8.524;2022-12-11T12:13:50;98180.34;;;0.97;89.52
46007;BME280;31738;50.188;8.524;2022-12-11T12:16:24;98173.69;;;0.95;89.75
46007;BME280;31738;50.188;8.524;2022-12-11T12:19:10;98179.19;;;0.93;89.52
46007;BME280;31738;50.188;8.524;2022-12-11T12:21:39;98168.97;;;0.97;89.99
46007;BME280;31738;50.188;8.524;2022-12-11T12:30:01;98173.56;;;1.01;89.33
46007;BME280;31738;50.188;8.524;2022-12-11T12:38:20;98176.66;;;0.98;89.03
46007;BME280;31738;50.188;8.524;2022-12-11T12:40:58;98185.75;;;1.02;89.41
46007;BME280;31738;50.188;8.524;2022-12-11T12:46:14;98183.91;;;1.03;89.59
46007;BME280;31738;50.188;8.524;2022-12-11T12:48:45;98187.00;;;1.00;89.68
46007;BME280;31738;50.188;8.524;2022-12-11T12:51:14;98179.88;;;1.00;89.58
46007;BME280;31738;50.188;8.524;2022-12-11T12:53:45;98177.25;;;1.00;89.61
46007;BME280;31738;50.188;8.524;2022-12-11T12:56:11;98177.25;;;1.00;89.64
46007;BME280;31738;50.188;8.524;2022-12-11T12:58:42;98187.56;;;1.02;89.65
46007;BME280;31738;50.188;8.524;2022-12-11T13:04:03;98183.13;;;1.02;89.66
46007;BME280;31738;50.188;8.524;2022-12-11T13:06:44;98182.53;;;1.00;89.80
46007;BME280;31738;50.188;8.524;2022-12-11T13:09:18;98181.47;;;1.01;89.57
46007;BME280;31738;50.188;8.524;2022-12-11T13:11:45;98184.13;;;1.01;89.59
46007;BME280;31738;50.188;8.524;2022-12-11T13:16:41;98192.41;;;1.05;89.23
46007;BME280;31738;50.188;8.524;2022-12-11T13:22:21;98189.31;;;0.96;89.30
46007;BME280;31738;50.188;8.524;2022-12-11T13:24:58;98198.44;;;0.94;88.85
46007;BME280;31738;50.188;8.524;2022-12-11T13:32:48;98187.41;;;0.85;89.24
46007;BME280;31738;50.188;8.524;2022-12-11T13:35:15;98193.28;;;0.87;89.27
46007;BME280;31738;50.188;8.524;2022-12-11T13:37:43;98189.53;;;0.95;89.24
46007;BME280;31738;50.188;8.524;2022-12-11T13:40:19;98186.44;;;0.98;88.84
46007;BME280;31738;50.188;8.524;2022-12-11T13:42:50;98187.56;;;1.02;88.83
46007;BME280;31738;50.188;8.524;2022-12-11T13:45:22;98197.06;;;0.91;88.60
46007;BME280;31738;50.188;8.524;2022-12-11T13:47:51;98195.81;;;0.94;89.00
46007;BME280;31738;50.188;8.524;2022-12-11T13:50:24;98194.91;;;1.00;89.25
46007;BME280;31738;50.188;8.524;2022-12-11T13:52:55;98199.75;;;1.03;88.84
46007;BME280;31738;50.188;8.524;2022-12-11T13:55:25;98204.78;;;1.04;89.04
46007;BME280;31738;50.188;8.524;2022-12-11T13:57:51;98204.78;;;1.04;89.10
46007;BME280;31738;50.188;8.524;2022-12-11T14:00:23;98203.78;;;1.05;88.77
46007;BME280;31738;50.188;8.524;2022-12-11T14:02:51;98200.91;;;1.07;88.79
46007;BME280;31738;50.188;8.524;2022-12-11T14:05:17;98208.59;;;1.08;88.52
46007;BME280;31738;50.188;8.524;2022-12-11T14:07:48;98200.81;;;1.13;88.60
46007;BME280;31738;50.188;8.524;2022-12-11T14:10:18;98201.16;;;1.17;88.52
46007;BME280;31738;50.188;8.524;2022-12-11T14:13:00;98191.41;;;1.17;88.35
46007;BME280;31738;50.188;8.524;2022-12-11T14:15:29;98190.38;;;1.18;88.87
46007;BME280;31738;50.188;8.524;2022-12-11T14:17:56;98191.41;;;1.17;88.70
46007;BME280;31738;50.188;8.524;2022-12-11T14:20:31;98192.91;;;1.13;88.41
46007;BME280;31738;50.188;8.524;2022-12-11T14:23:06;98200.00;;;1.13;88.53
46007;BME280;31738;50.188;8.524;2022-12-11T14:25:32;98196.09;;;1.15;88.42
46007;BME280;31738;50.188;8.524;2022-12-11T14:27:57;98202.56;;;1.19;88.53
46007;BME280;31738;50.188;8.524;2022-12-11T14:30:26;98203.56;;;1.18;88.37
46007;BME280;31738;50.188;8.524;2022-12-11T14:32:56;98205.19;;;1.19;88.29
46007;BME280;31738;50.188;8.524;2022-12-11T14:35:30;98204.38;;;1.19;88.38
46007;BME280;31738;50.188;8.524;2022-12-11T14:38:00;98207.69;;;1.14;88.79
46007;BME280;31738;50.188;8.524;2022-12-11T14:40:34;98220.47;;;1.17;88.41
46007;BME280;31738;50.188;8.524;2022-12-11T14:43:06;98222.06;;;1.18;88.08
46007;BME280;31738;50.188;8.524;2022-12-11T14:45:39;98222.63;;;1.20;88.27
46007;BME280;31738;50.188;8.524;2022-12-11T14:48:11;98223.22;;;1.22;88.11
46007;BME280;31738;50.188;8.524;2022-12-11T14:50:42;98221.38;;;1.23;88.23
46007;BME280;31738;50.188;8.524;2022-12-11T14:53:20;98225.88;;;1.22;88.11
46007;BME280;31738;50.188;8.524;2022-12-11T14:55:49;98231.72;;;1.24;88.18
46007;BME280;31738;50.188;8.524;2022-12-11T14:58:25;98232.75;;;1.23;87.76
46007;BME280;31738;50.188;8.524;2022-12-11T15:00:59;98228.28;;;1.24;87.85
46007;BME280;31738;50.188;8.524;2022-12-11T15:03:33;98225.88;;;1.22;88.09
46007;BME280;31738;50.188;8.524;2022-12-11T15:06:01;98231.59;;;1.19;88.22
46007;BME280;31738;50.188;8.524;2022-12-11T15:08:32;98227.09;;;1.20;88.00
46007;BME280;31738;50.188;8.524;2022-12-11T15:11:17;98232.50;;;1.13;87.65
46007;BME280;31738;50.188;8.524;2022-12-11T15:13:56;98229.28;;;1.11;87.91
46007;BME280;31738;50.188;8.524;2022-12-11T15:16:23;98237.34;;;1.16;87.83
46007;BME280;31738;50.188;8.524;2022-12-11T15:18:51;98231.59;;;1.19;88.03
46007;BME280;31738;50.188;8.524;2022-12-11T15:24:50;98241.44;;;1.12;88.02
46007;BME280;31738;50.188;8.524;2022-12-11T15:29:53;98246.16;;;1.10;87.94
46007;BME280;31738;50.188;8.524;2022-12-11T15:32:20;98247.75;;;1.11;87.70
46007;BME280;31738;50.188;8.524;2022-12-11T15:34:57;98253.28;;;1.10;87.48
46007;BME280;31738;50.188;8.524;2022-12-11T15:37:28;98247.75;;;1.11;87.94
46007;BME280;31738;50.188;8.524;2022-12-11T15:39:56;98248.81;;;1.10;87.84